Time;durP1;ratioP1;P1;durP2;ratioP2;P2;SDS_P1;SDS_P2;PMS_P1;PMS_P2;Temp;Humidity;BMP_temperature;BMP_pressure;BME280_temperature;BME280_humidity;BME280_pressure;Samples;Min_cycle;Max_cycle;Signal;HPM_P1;HPM_P2
2022/08/17 00:00:46;;;;;;;19.52;15.90;;;20.30;99.90;;;;;;5033424;28;20049;-68
2022/08/17 00:03:24;;;;;;;20.92;17.52;;;20.30;99.90;;;;;;5033314;28;20459;-68
2022/08/17 00:06:10;;;;;;;18.92;15.95;;;20.30;99.90;;;;;;5033361;28;20199;-68
2022/08/17 00:08:56;;;;;;;20.05;16.83;;;20.30;99.90;;;;;;5033441;28;20049;-68
2022/08/17 00:11:37;;;;;;;21.70;16.60;;;20.20;99.90;;;;;;5033334;28;20096;-68
2022/08/17 00:14:09;;;;;;;18.85;16.30;;;20.20;99.90;;;;;;5033983;28;20057;-68
2022/08/17 00:16:40;;;;;;;19.70;16.48;;;20.20;99.90;;;;;;5033105;28;20085;-68
2022/08/17 00:19:11;;;;;;;20.00;17.80;;;20.10;99.90;;;;;;5033130;28;20048;-68
2022/08/17 00:21:40;;;;;;;19.75;16.67;;;20.10;99.90;;;;;;5033124;28;20091;-68
2022/08/17 00:24:07;;;;;;;18.63;16.60;;;20.00;99.90;;;;;;5033174;28;20095;-68
2022/08/17 00:26:32;;;;;;;19.63;15.95;;;20.00;99.90;;;;;;5032993;28;20056;-68
2022/08/17 00:28:58;;;;;;;20.40;17.17;;;20.00;99.90;;;;;;5032940;28;20037;-68
2022/08/17 00:31:25;;;;;;;19.75;16.88;;;20.00;99.90;;;;;;5032989;28;20394;-68
2022/08/17 00:33:51;;;;;;;21.23;17.25;;;20.00;99.90;;;;;;5032520;28;20058;-68
2022/08/17 00:36:17;;;;;;;20.25;17.45;;;19.90;99.90;;;;;;5033007;28;20045;-68
2022/08/17 00:38:43;;;;;;;17.75;15.85;;;19.90;99.90;;;;;;5033303;28;20041;-68
2022/08/17 00:41:12;;;;;;;19.85;16.48;;;19.90;99.90;;;;;;5033224;28;20045;-68
2022/08/17 00:43:44;;;;;;;17.65;15.52;;;19.90;99.90;;;;;;5032962;28;20404;-68
2022/08/17 00:46:12;;;;;;;19.00;16.02;;;19.80;99.90;;;;;;5016121;28;20084;-68
2022/08/17 00:48:39;;;;;;;17.27;15.07;;;19.70;99.90;;;;;;5032843;28;20048;-68
2022/08/17 00:51:22;;;;;;;18.13;15.43;;;19.70;99.90;;;;;;5033141;28;20482;-68
2022/08/17 00:53:55;;;;;;;17.83;15.45;;;19.50;99.90;;;;;;5032852;28;20041;-68
2022/08/17 00:56:30;;;;;;;16.80;15.02;;;19.50;99.90;;;;;;5034787;28;20398;-68
2022/08/17 00:58:56;;;;;;;16.33;14.63;;;19.40;99.90;;;;;;5037126;28;20061;-68
2022/08/17 01:01:23;;;;;;;17.08;15.20;;;19.40;99.90;;;;;;5036788;28;20497;-68
2022/08/17 01:03:51;;;;;;;16.48;14.68;;;19.40;99.90;;;;;;5036257;28;20514;-68
2022/08/17 01:06:17;;;;;;;17.75;15.30;;;19.40;99.90;;;;;;5036552;28;20457;-68
2022/08/17 01:08:43;;;;;;;17.00;14.55;;;19.40;99.90;;;;;;5036537;28;20077;-69
2022/08/17 01:11:09;;;;;;;19.75;15.93;;;19.30;99.90;;;;;;5036799;28;20391;-68
2022/08/17 01:13:42;;;;;;;19.23;16.52;;;19.40;99.90;;;;;;5036382;28;20050;-68
2022/08/17 01:16:15;;;;;;;18.45;15.75;;;19.40;99.90;;;;;;5036376;28;20050;-68
2022/08/17 01:18:44;;;;;;;18.48;16.00;;;19.40;99.90;;;;;;5036830;28;20094;-68
2022/08/17 01:21:27;;;;;;;18.65;16.13;;;19.30;99.90;;;;;;5018564;28;20053;-68
2022/08/17 01:23:53;;;;;;;19.25;16.50;;;19.30;99.90;;;;;;5036441;28;20073;-68
2022/08/17 01:26:20;;;;;;;20.50;17.10;;;19.20;99.90;;;;;;5036812;28;20486;-68
2022/08/17 01:28:46;;;;;;;18.83;14.70;;;19.20;99.90;;;;;;5036142;28;20042;-68
2022/08/17 01:31:12;;;;;;;16.88;15.07;;;19.10;99.90;;;;;;5036036;28;20050;-68
2022/08/17 01:33:40;;;;;;;14.77;12.80;;;19.00;99.90;;;;;;5035795;28;20488;-68
2022/08/17 01:36:06;;;;;;;15.65;14.02;;;19.00;99.90;;;;;;5018149;28;20056;-68
2022/08/17 01:38:35;;;;;;;14.20;12.68;;;18.90;99.90;;;;;;5018231;28;20053;-68
2022/08/17 01:41:06;;;;;;;14.82;12.43;;;18.90;99.90;;;;;;5035538;28;20498;-68
2022/08/17 01:43:46;;;;;;;13.40;12.00;;;18.90;99.90;;;;;;5035887;28;20048;-68
2022/08/17 01:46:17;;;;;;;11.57;10.38;;;18.80;99.90;;;;;;5018623;28;20133;-68
2022/08/17 01:48:46;;;;;;;11.32;10.23;;;18.70;99.90;;;;;;5018425;28;20152;-68
2022/08/17 01:51:13;;;;;;;11.68;10.48;;;18.70;99.90;;;;;;5035403;28;20502;-67
2022/08/17 01:53:43;;;;;;;12.63;11.35;;;18.60;99.90;;;;;;5035560;28;20037;-68
2022/08/17 01:56:12;;;;;;;11.88;9.77;;;18.50;99.90;;;;;;5035498;28;20047;-68
2022/08/17 01:58:38;;;;;;;10.10;9.20;;;18.40;99.90;;;;;;5035658;28;20422;-68
2022/08/17 02:01:05;;;;;;;10.18;9.18;;;18.30;99.90;;;;;;5017532;28;20578;-68
2022/08/17 02:03:33;;;;;;;10.68;9.57;;;18.30;99.90;;;;;;5035459;28;20049;-68
2022/08/17 02:05:59;;;;;;;9.95;9.00;;;18.30;99.90;;;;;;5035953;28;20050;-68
2022/08/17 02:08:26;;;;;;;13.32;11.93;;;18.30;99.90;;;;;;5034397;28;20088;-68
2022/08/17 02:10:52;;;;;;;14.18;12.65;;;18.30;99.90;;;;;;5036154;28;20458;-68
2022/08/17 02:13:18;;;;;;;14.48;12.98;;;18.30;99.90;;;;;;5035394;28;20081;-68
2022/08/17 02:15:45;;;;;;;15.02;13.52;;;18.30;99.90;;;;;;5035284;28;20057;-68
2022/08/17 02:18:11;;;;;;;15.32;13.50;;;18.30;99.90;;;;;;5035112;28;20103;-68
2022/08/17 02:20:37;;;;;;;15.23;13.63;;;18.40;99.90;;;;;;5035142;28;20049;-68
2022/08/17 02:23:07;;;;;;;15.00;13.32;;;18.40;99.90;;;;;;5035009;28;20045;-67
2022/08/17 02:25:35;;;;;;;13.57;11.93;;;18.40;99.90;;;;;;5034944;28;20042;-68
2022/08/17 02:28:02;;;;;;;13.25;11.85;;;18.40;99.90;;;;;;5035005;28;20057;-68
2022/08/17 02:30:28;;;;;;;15.75;13.68;;;18.40;99.90;;;;;;5034931;28;20078;-68
2022/08/17 02:32:55;;;;;;;16.88;13.98;;;18.50;99.90;;;;;;5035085;28;20057;-68
2022/08/17 02:35:22;;;;;;;16.00;14.30;;;18.50;99.90;;;;;;5035706;28;20429;-68
2022/08/17 02:37:50;;;;;;;17.55;14.77;;;18.50;99.90;;;;;;5034735;28;20103;-68
2022/08/17 02:40:16;;;;;;;18.02;15.18;;;18.60;99.90;;;;;;5034711;28;20128;-68
2022/08/17 02:42:43;;;;;;;19.02;15.50;;;18.50;99.90;;;;;;5034761;28;20126;-68
2022/08/17 02:45:14;;;;;;;18.20;15.68;;;18.50;99.90;;;;;;5035481;28;20049;-68
2022/08/17 02:47:40;;;;;;;15.73;14.05;;;18.50;99.90;;;;;;5034972;28;20067;-68
2022/08/17 02:50:08;;;;;;;16.13;13.75;;;18.50;99.90;;;;;;5034606;28;20100;-68
2022/08/17 02:52:39;;;;;;;17.83;14.95;;;18.50;99.90;;;;;;5034595;28;20042;-68
2022/08/17 02:55:06;;;;;;;17.45;15.60;;;18.60;99.90;;;;;;5034474;28;20498;-68
2022/08/17 02:57:32;;;;;;;16.92;15.13;;;18.60;99.90;;;;;;5034678;28;20129;-68
2022/08/17 02:59:57;;;;;;;18.27;15.40;;;18.60;99.90;;;;;;5034298;28;20453;-68
2022/08/17 03:02:23;;;;;;;29.80;14.85;;;18.60;99.90;;;;;;5034339;28;20107;-68
2022/08/17 03:04:49;;;;;;;15.50;13.85;;;18.50;99.90;;;;;;5034283;28;20069;-68
2022/08/17 03:07:15;;;;;;;15.75;14.05;;;18.50;99.90;;;;;;5034281;28;20506;-68
2022/08/17 03:09:40;;;;;;;15.68;12.85;;;18.50;99.90;;;;;;5034941;28;20045;-68
2022/08/17 03:12:12;;;;;;;14.90;13.05;;;18.50;99.90;;;;;;5034430;28;20470;-68
2022/08/17 03:14:42;;;;;;;14.15;12.65;;;18.50;99.90;;;;;;5034129;28;20092;-68
2022/08/17 03:17:11;;;;;;;15.25;13.63;;;18.40;99.90;;;;;;5034087;28;20128;-68
2022/08/17 03:19:37;;;;;;;15.63;13.95;;;18.40;99.90;;;;;;5016460;28;20128;-68
2022/08/17 03:22:07;;;;;;;17.38;15.20;;;18.50;99.90;;;;;;5033942;28;20462;-68
2022/08/17 03:24:33;;;;;;;17.92;14.88;;;18.50;99.90;;;;;;5034375;28;20049;-68
2022/08/17 03:26:59;;;;;;;17.23;15.35;;;18.50;99.90;;;;;;5033903;28;20053;-68
2022/08/17 03:29:25;;;;;;;17.45;15.65;;;18.40;99.90;;;;;;5034183;28;20099;-68
2022/08/17 03:31:51;;;;;;;18.30;16.05;;;18.40;99.90;;;;;;5034219;28;20065;-68
2022/08/17 03:34:17;;;;;;;17.63;14.57;;;18.40;99.90;;;;;;5034147;28;20064;-68
2022/08/17 03:36:43;;;;;;;17.08;15.00;;;18.50;99.90;;;;;;5033537;28;20046;-68
2022/08/17 03:39:08;;;;;;;17.45;15.18;;;18.40;99.90;;;;;;5033482;28;20044;-68
2022/08/17 03:41:34;;;;;;;18.42;15.52;;;18.40;99.90;;;;;;5033959;28;20386;-67
2022/08/17 03:44:00;;;;;;;17.15;15.30;;;18.40;99.90;;;;;;5016245;28;20391;-68
2022/08/17 03:57:26;;;;;;;17.95;15.10;;;18.30;99.90;;;;;;5033466;28;20107;-68
2022/08/17 03:59:53;;;;;;;18.30;14.70;;;18.20;99.90;;;;;;5033869;28;20037;-68
2022/08/17 04:02:29;;;;;;;15.90;14.20;;;18.30;99.90;;;;;;5033893;28;20076;-68
2022/08/17 04:04:55;;;;;;;16.30;14.60;;;18.30;99.90;;;;;;5033356;28;20060;-68
2022/08/17 04:07:23;;;;;;;17.67;15.80;;;18.30;99.90;;;;;;5034021;28;20049;-68
2022/08/17 04:09:49;;;;;;;16.15;14.23;;;18.30;99.90;;;;;;5033507;28;20057;-68
2022/08/17 04:12:17;;;;;;;17.15;15.35;;;18.40;99.90;;;;;;5016567;28;20045;-68
2022/08/17 04:14:42;;;;;;;18.20;15.27;;;18.40;99.90;;;;;;5033211;28;20045;-68
2022/08/17 04:17:08;;;;;;;18.63;15.70;;;18.40;99.90;;;;;;5033197;28;20091;-68
2022/08/17 04:19:34;;;;;;;17.63;14.82;;;18.40;99.90;;;;;;5033027;28;20167;-68
2022/08/17 04:22:00;;;;;;;17.25;15.23;;;18.40;99.90;;;;;;5015789;28;20056;-68
2022/08/17 04:24:26;;;;;;;18.10;15.50;;;18.40;99.90;;;;;;5032579;28;20336;-68
2022/08/17 04:26:52;;;;;;;17.48;15.65;;;18.40;99.90;;;;;;5033170;28;20049;-68
2022/08/17 04:29:18;;;;;;;18.70;16.08;;;18.50;99.90;;;;;;5033446;28;20041;-68
2022/08/17 04:31:44;;;;;;;20.00;16.13;;;18.50;99.90;;;;;;5034845;28;20413;-67
2022/08/17 04:34:10;;;;;;;19.02;15.73;;;18.50;99.90;;;;;;5037546;28;20136;-68
2022/08/17 04:36:36;;;;;;;18.95;16.10;;;18.50;99.90;;;;;;5037095;28;20049;-68
2022/08/17 04:39:02;;;;;;;17.35;15.30;;;18.50;99.90;;;;;;5036948;28;20042;-68
2022/08/17 04:44:13;;;;;;;18.27;16.13;;;18.50;99.90;;;;;;5037005;28;20104;-68
2022/08/17 04:46:38;;;;;;;17.48;14.55;;;18.40;99.90;;;;;;5019409;28;20053;-68
2022/08/17 04:49:07;;;;;;;19.13;16.35;;;18.40;99.90;;;;;;5019740;28;20478;-68
2022/08/17 04:51:35;;;;;;;19.05;16.35;;;18.40;99.90;;;;;;5036787;28;20049;-68
2022/08/17 04:54:05;;;;;;;18.65;16.33;;;18.40;99.90;;;;;;5037287;28;20049;-68
2022/08/17 04:56:32;;;;;;;18.88;16.10;;;18.40;99.90;;;;;;5019378;28;20471;-68
2022/08/17 04:59:01;;;;;;;20.85;16.55;;;18.40;99.90;;;;;;5019048;28;20482;-68
2022/08/17 05:01:30;;;;;;;19.92;16.25;;;18.40;99.90;;;;;;5036667;28;20042;-68
2022/08/17 05:03:58;;;;;;;19.27;16.85;;;18.50;99.90;;;;;;5036908;28;20423;-68
2022/08/17 05:06:25;;;;;;;20.17;16.90;;;18.50;99.90;;;;;;5036518;28;20494;-68
2022/08/17 05:08:51;;;;;;;19.52;16.67;;;18.60;99.90;;;;;;5036462;28;20081;-68
2022/08/17 05:11:17;;;;;;;20.58;17.05;;;18.60;99.90;;;;;;5036943;28;20053;-68
2022/08/17 05:13:43;;;;;;;18.65;16.13;;;18.60;99.90;;;;;;5036913;28;20332;-68
2022/08/17 05:16:09;;;;;;;20.48;16.83;;;18.60;99.90;;;;;;5002671;28;20103;-68
2022/08/17 05:18:38;;;;;;;19.23;16.38;;;18.70;99.90;;;;;;5019376;28;20073;-68
2022/08/17 05:21:05;;;;;;;20.30;16.77;;;18.60;99.90;;;;;;5036542;28;20519;-68
2022/08/17 05:23:31;;;;;;;19.85;17.20;;;18.70;99.90;;;;;;5036106;28;20093;-68
2022/08/17 05:25:57;;;;;;;18.23;15.65;;;18.70;99.90;;;;;;5036146;28;20088;-68
2022/08/17 05:28:26;;;;;;;18.40;16.40;;;18.70;99.90;;;;;;5036923;28;20056;-68
2022/08/17 05:30:53;;;;;;;19.08;15.52;;;18.70;99.90;;;;;;5036072;28;20053;-68
2022/08/17 05:33:28;;;;;;;17.23;14.75;;;18.60;99.90;;;;;;5018662;28;20398;-68
2022/08/17 05:35:56;;;;;;;17.63;15.35;;;18.60;99.90;;;;;;5036090;28;20060;-68
2022/08/17 05:38:24;;;;;;;20.35;16.70;;;18.60;99.90;;;;;;5035966;28;20111;-68
2022/08/17 05:40:50;;;;;;;18.02;15.45;;;18.60;99.90;;;;;;5035823;28;20557;-68
2022/08/17 05:43:28;;;;;;;19.02;15.88;;;18.60;99.90;;;;;;5034544;28;20184;-68
2022/08/17 05:46:15;;;;;;;22.45;17.65;;;18.70;99.90;;;;;;5036292;28;20106;-68
2022/08/17 05:48:44;;;;;;;19.50;16.05;;;18.70;99.90;;;;;;5035766;28;20045;-68
2022/08/17 05:51:21;;;;;;;20.45;16.52;;;18.70;99.90;;;;;;5035655;28;20041;-68
2022/08/17 05:54:10;;;;;;;20.58;16.65;;;18.70;99.90;;;;;;5035614;28;20052;-68
2022/08/17 05:57:07;;;;;;;22.67;17.33;;;18.70;99.90;;;;;;5035850;28;20517;-68
2022/08/17 06:00:11;;;;;;;23.42;18.17;;;18.70;99.90;;;;;;5002877;28;20103;-68
2022/08/17 06:03:00;;;;;;;20.50;16.83;;;18.70;99.90;;;;;;5035996;28;20479;-68
2022/08/17 06:05:32;;;;;;;20.80;16.42;;;18.70;99.90;;;;;;5036029;28;20072;-68
2022/08/17 06:08:12;;;;;;;22.52;17.80;;;18.70;99.90;;;;;;5035414;28;20367;-64
2022/08/17 06:10:58;;;;;;;21.88;16.83;;;18.80;99.90;;;;;;5035966;28;20158;-63
2022/08/17 06:13:50;;;;;;;21.13;16.73;;;18.80;99.90;;;;;;5035571;28;20045;-64
2022/08/17 06:16:23;;;;;;;22.75;18.05;;;18.90;99.90;;;;;;5017593;28;20562;-63
2022/08/17 06:18:59;;;;;;;22.15;18.00;;;18.90;99.90;;;;;;5035758;28;20092;-63
2022/08/17 06:21:30;;;;;;;21.88;17.67;;;19.00;99.90;;;;;;5017391;28;20045;-64
2022/08/17 06:24:05;;;;;;;23.63;18.75;;;19.00;99.90;;;;;;5035826;28;20064;-63
2022/08/17 06:26:34;;;;;;;22.55;18.30;;;19.10;99.90;;;;;;5017930;28;20398;-63
2022/08/17 06:29:07;;;;;;;28.17;19.60;;;19.10;99.90;;;;;;5035472;28;20132;-63
2022/08/17 06:31:35;;;;;;;23.65;18.70;;;19.20;99.90;;;;;;5035469;28;20085;-63
2022/08/17 06:34:03;;;;;;;22.33;17.90;;;19.20;99.90;;;;;;5034596;28;20498;-64
2022/08/17 06:36:41;;;;;;;26.17;19.38;;;19.20;99.90;;;;;;5034837;28;20553;-64
2022/08/17 06:39:27;;;;;;;23.70;18.63;;;19.20;99.90;;;;;;5034852;28;20095;-63
2022/08/17 06:42:04;;;;;;;23.55;19.33;;;19.30;99.90;;;;;;5034742;28;20045;-63
2022/08/17 06:44:44;;;;;;;24.05;18.90;;;19.30;99.90;;;;;;5034741;28;20091;-64
2022/08/17 06:47:27;;;;;;;24.10;18.40;;;19.30;99.90;;;;;;5034293;28;20096;-64
2022/08/17 06:50:16;;;;;;;25.00;19.20;;;19.30;99.90;;;;;;5035392;28;20390;-64
2022/08/17 06:52:58;;;;;;;24.63;19.77;;;19.40;99.90;;;;;;5024247;28;20382;-63
2022/08/17 06:55:43;;;;;;;25.10;18.88;;;19.40;99.90;;;;;;5016582;28;20053;-64
2022/08/17 06:58:12;;;;;;;22.40;19.47;;;19.40;99.90;;;;;;5034491;28;20050;-64
2022/08/17 07:00:42;;;;;;;26.98;19.70;;;19.50;99.90;;;;;;5034346;28;20048;-65
2022/08/17 07:03:08;;;;;;;24.30;19.50;;;19.50;99.90;;;;;;5034647;28;20542;-65
2022/08/17 07:05:51;;;;;;;25.98;19.70;;;19.60;99.90;;;;;;5034313;28;20133;-65
2022/08/17 07:08:36;;;;;;;21.95;18.25;;;19.60;99.90;;;;;;5034614;28;20084;-65
2022/08/17 07:11:15;;;;;;;21.38;17.50;;;19.60;99.90;;;;;;5034497;28;20053;-65
2022/08/17 07:14:04;;;;;;;20.30;17.48;;;19.70;99.90;;;;;;5034178;28;20053;-66
2022/08/17 07:16:35;;;;;;;21.58;17.27;;;19.90;99.90;;;;;;5034625;28;20483;-66
2022/08/17 07:19:01;;;;;;;19.95;17.23;;;20.00;99.90;;;;;;5033756;28;20060;-68
2022/08/17 07:21:47;;;;;;;23.65;18.20;;;20.10;99.90;;;;;;5033792;28;20136;-67
2022/08/17 07:24:19;;;;;;;20.88;16.95;;;20.30;99.90;;;;;;5034184;28;20045;-67
2022/08/17 07:26:48;;;;;;;19.95;16.33;;;20.40;99.90;;;;;;5016937;28;20057;-67
2022/08/17 07:29:17;;;;;;;18.90;15.98;;;20.50;99.90;;;;;;5034342;28;20046;-67
2022/08/17 07:31:44;;;;;;;19.45;17.27;;;20.70;99.90;;;;;;5033635;28;20049;-68
2022/08/17 07:34:13;;;;;;;19.33;15.98;;;20.80;99.90;;;;;;5015984;28;20099;-66
2022/08/17 07:36:42;;;;;;;17.02;15.23;;;20.90;99.90;;;;;;5033696;28;20049;-67
2022/08/17 07:39:09;;;;;;;20.58;15.98;;;21.00;99.90;;;;;;5033620;28;20401;-66
2022/08/17 07:41:39;;;;;;;17.05;15.07;;;21.10;99.90;;;;;;5033925;28;20049;-66
2022/08/17 07:44:12;;;;;;;18.02;15.55;;;21.10;99.90;;;;;;5015988;28;20049;-66
2022/08/17 07:49:41;;;;;;;17.52;15.73;;;21.30;99.90;;;;;;5034225;28;20126;-66
2022/08/17 07:52:27;;;;;;;21.30;17.02;;;21.40;99.90;;;;;;5033490;28;20081;-66
2022/08/17 07:54:53;;;;;;;19.02;16.10;;;21.40;99.90;;;;;;5016167;28;20489;-66
2022/08/17 07:57:21;;;;;;;20.10;16.88;;;21.50;99.90;;;;;;5033847;28;20041;-66
2022/08/17 08:00:14;;;;;;;16.70;15.00;;;21.50;99.90;;;;;;5033231;28;20049;-66
2022/08/17 08:02:44;;;;;;;17.65;15.73;;;21.60;99.90;;;;;;5016363;28;20551;-66
2022/08/17 08:05:11;;;;;;;16.55;14.85;;;21.60;99.90;;;;;;5033478;28;20041;-66
2022/08/17 08:07:50;;;;;;;18.27;16.17;;;21.80;99.90;;;;;;5015473;28;20081;-66
2022/08/17 08:10:37;;;;;;;16.80;14.77;;;21.90;99.90;;;;;;5033928;28;20484;-66
2022/08/17 08:13:24;;;;;;;16.05;14.27;;;22.10;99.90;;;;;;5033135;28;20049;-66
2022/08/17 08:15:52;;;;;;;16.33;14.25;;;22.30;99.90;;;;;;5033512;28;20064;-66
2022/08/17 08:18:30;;;;;;;15.50;13.90;;;22.50;99.90;;;;;;5015390;28;20045;-67
2022/08/17 08:21:08;;;;;;;15.05;13.45;;;22.70;99.90;;;;;;5015863;28;20053;-66
2022/08/17 08:24:01;;;;;;;14.98;13.48;;;22.80;99.90;;;;;;5032677;28;20045;-68
2022/08/17 08:26:43;;;;;;;15.57;13.13;;;23.00;99.90;;;;;;5033114;28;20050;-66
2022/08/17 08:29:39;;;;;;;14.70;13.20;;;23.00;99.90;;;;;;5033059;28;20041;-66
2022/08/17 08:32:30;;;;;;;14.65;13.15;;;23.10;99.90;;;;;;5033151;28;20045;-66
2022/08/17 08:35:12;;;;;;;14.82;12.70;;;23.10;99.90;;;;;;5033022;28;20093;-66
2022/08/17 08:37:54;;;;;;;13.35;12.05;;;23.20;99.90;;;;;;5016298;28;20413;-66
2022/08/17 08:40:51;;;;;;;12.77;11.55;;;23.20;99.90;;;;;;5033587;28;20046;-65
2022/08/17 08:43:35;;;;;;;12.52;11.23;;;23.20;99.90;;;;;;5025691;28;20490;-68
2022/08/17 08:46:30;;;;;;;12.07;10.77;;;23.20;99.90;;;;;;5032810;28;20054;-66
2022/08/17 08:49:19;;;;;;;13.50;12.10;;;23.20;99.90;;;;;;5022076;28;20050;-66
2022/08/17 08:51:54;;;;;;;13.27;11.68;;;23.20;99.90;;;;;;5033630;28;20052;-66
2022/08/17 08:54:44;;;;;;;12.30;11.10;;;23.10;99.90;;;;;;5033030;28;20179;-66
2022/08/17 08:57:29;;;;;;;13.98;12.48;;;23.00;99.90;;;;;;5033120;28;20045;-66
2022/08/17 09:00:22;;;;;;;13.65;12.25;;;22.90;99.90;;;;;;5032791;28;20041;-66
2022/08/17 09:03:06;;;;;;;12.75;11.25;;;22.90;99.90;;;;;;5032981;28;20451;-67
2022/08/17 09:05:35;;;;;;;13.30;11.90;;;22.80;99.90;;;;;;5032586;28;20049;-66
2022/08/17 09:08:14;;;;;;;13.10;11.75;;;22.70;99.90;;;;;;5032571;28;20049;-66
2022/08/17 09:10:51;;;;;;;13.07;11.77;;;22.70;99.90;;;;;;5032738;28;20191;-67
2022/08/17 09:13:23;;;;;;;11.43;10.30;;;22.70;99.90;;;;;;5032641;28;20111;-66
2022/08/17 09:16:05;;;;;;;11.27;10.20;;;22.70;99.90;;;;;;5033359;28;20056;-66
2022/08/17 09:18:35;;;;;;;10.90;9.30;;;22.70;99.90;;;;;;5035139;28;20517;-66
2022/08/17 09:21:02;;;;;;;10.40;9.40;;;22.70;99.90;;;;;;5036137;28;20135;-66
2022/08/17 09:23:33;;;;;;;10.20;8.85;;;22.70;99.90;;;;;;5036847;28;20124;-66
2022/08/17 09:26:24;;;;;;;10.60;9.13;;;22.70;99.90;;;;;;5036933;28;20399;-66
2022/08/17 09:28:57;;;;;;;10.20;9.13;;;22.70;99.90;;;;;;5036101;28;20117;-66
2022/08/17 09:31:34;;;;;;;10.68;9.43;;;22.70;99.90;;;;;;5036257;28;20049;-66
2022/08/17 09:34:14;;;;;;;9.60;8.52;;;22.60;99.90;;;;;;5036384;28;20064;-66
2022/08/17 09:37:01;;;;;;;9.77;8.85;;;22.60;99.90;;;;;;5036543;28;20474;-66
2022/08/17 09:39:35;;;;;;;10.00;9.00;;;22.60;99.90;;;;;;5035664;28;20041;-66
2022/08/17 09:42:15;;;;;;;10.63;9.18;;;22.60;99.90;;;;;;5035835;28;20056;-66
2022/08/17 09:45:05;;;;;;;10.68;9.57;;;22.60;99.90;;;;;;5036069;28;20061;-66
2022/08/17 09:48:03;;;;;;;10.00;9.00;;;22.70;99.90;;;;;;5035785;28;20483;-66
2022/08/17 09:51:02;;;;;;;9.82;8.23;;;22.80;99.90;;;;;;5035726;28;20037;-66
2022/08/17 09:53:29;;;;;;;9.70;8.80;;;22.90;99.90;;;;;;5035822;28;20387;-66
2022/08/17 09:55:56;;;;;;;9.07;8.18;;;23.10;99.90;;;;;;5035496;28;20494;-66
2022/08/17 09:58:44;;;;;;;10.88;8.32;;;23.30;99.90;;;;;;5035448;28;20053;-66
2022/08/17 10:01:34;;;;;;;9.65;8.68;;;23.40;99.90;;;;;;5035448;28;20438;-67
2022/08/17 10:04:37;;;;;;;9.68;8.60;;;23.60;99.90;;;;;;5036127;28;20114;-64
2022/08/17 10:07:15;;;;;;;10.02;9.02;;;23.70;99.90;;;;;;5035346;28;20132;-64
2022/08/17 10:09:58;;;;;;;10.57;9.48;;;23.90;99.90;;;;;;5017613;28;20518;-67
2022/08/17 10:12:42;;;;;;;10.65;9.57;;;24.00;99.90;;;;;;5035372;28;20130;-67
2022/08/17 10:15:26;;;;;;;11.95;10.75;;;24.00;99.90;;;;;;5035562;28;20121;-67
2022/08/17 10:18:24;;;;;;;10.95;9.80;;;24.10;99.90;;;;;;5035168;28;20056;-67
2022/08/17 10:26:53;;;;;;;11.10;10.00;;;24.00;99.90;;;;;;5035114;28;20099;-66
2022/08/17 10:29:26;;;;;;;11.00;9.73;;;23.90;99.90;;;;;;5034101;28;20053;-68
2022/08/17 10:31:58;;;;;;;10.25;9.20;;;23.90;99.90;;;;;;5035109;28;20136;-67
2022/08/17 10:34:33;;;;;;;11.32;10.10;;;23.90;99.90;;;;;;5034671;28;20110;-68
2022/08/17 10:37:23;;;;;;;11.00;9.83;;;23.90;99.90;;;;;;5034890;28;20486;-67
2022/08/17 10:40:08;;;;;;;11.15;9.93;;;23.90;99.90;;;;;;5034806;28;20055;-67
2022/08/17 10:42:42;;;;;;;12.95;10.40;;;23.80;99.90;;;;;;5034694;28;20056;-67
2022/08/17 10:45:27;;;;;;;11.85;10.07;;;23.80;99.90;;;;;;5017489;28;20108;-67
2022/08/17 10:47:58;;;;;;;11.93;10.07;;;23.90;99.90;;;;;;5034580;28;20191;-67
2022/08/17 10:50:56;;;;;;;12.90;11.60;;;23.90;99.90;;;;;;5034739;28;20458;-67
2022/08/17 10:53:30;;;;;;;12.93;10.68;;;24.00;99.90;;;;;;5034493;28;20057;-68
2022/08/17 10:56:16;;;;;;;13.32;11.98;;;24.00;99.90;;;;;;5034027;28;20560;-66
2022/08/17 10:58:49;;;;;;;13.00;11.10;;;23.90;99.90;;;;;;5034784;28;20130;-68
2022/08/17 11:01:16;;;;;;;14.00;12.48;;;24.00;99.90;;;;;;5034314;28;20045;-67
2022/08/17 11:03:54;;;;;;;14.43;12.93;;;24.10;99.90;;;;;;5035030;28;20045;-66
2022/08/17 11:06:41;;;;;;;15.05;12.65;;;24.30;99.90;;;;;;5034222;28;20501;-67
2022/08/17 11:09:15;;;;;;;13.88;12.38;;;24.40;99.90;;;;;;5034282;28;20041;-66
2022/08/17 11:11:50;;;;;;;15.85;13.13;;;24.50;99.90;;;;;;5034686;28;20050;-67
2022/08/17 11:14:24;;;;;;;14.75;13.20;;;24.70;99.90;;;;;;5034431;28;20049;-66
2022/08/17 11:17:29;;;;;;;16.30;14.25;;;24.90;99.90;;;;;;5034126;28;20107;-67
2022/08/17 11:20:08;;;;;;;17.23;13.82;;;25.10;99.90;;;;;;5033637;28;20482;-64
2022/08/17 11:22:58;;;;;;;14.40;12.57;;;25.10;99.90;;;;;;5034712;28;20049;-64
2022/08/17 11:25:37;;;;;;;16.58;13.68;;;25.10;99.90;;;;;;5033896;28;20045;-66
2022/08/17 11:28:27;;;;;;;16.38;13.38;;;25.20;99.90;;;;;;5034507;28;20417;-66
2022/08/17 11:31:00;;;;;;;17.88;14.35;;;25.20;99.90;;;;;;5021928;28;20059;-65
2022/08/17 11:33:28;;;;;;;17.55;14.63;;;25.10;99.90;;;;;;5034183;28;20105;-64
2022/08/17 11:36:05;;;;;;;17.90;14.63;;;24.90;99.90;;;;;;5033714;28;20075;-64
2022/08/17 11:38:56;;;;;;;19.35;15.82;;;24.90;99.90;;;;;;5016551;28;20053;-65
2022/08/17 11:41:47;;;;;;;20.55;17.02;;;24.80;99.90;;;;;;5024035;28;20058;-65
2022/08/17 11:44:43;;;;;;;18.90;16.77;;;24.70;99.90;;;;;;5034196;28;20041;-65
2022/08/17 11:53:38;;;;;;;21.52;17.02;;;24.40;99.90;;;;;;5034184;28;20053;-65
2022/08/17 11:56:06;;;;;;;22.27;18.65;;;24.40;99.90;;;;;;5034524;28;20156;-65
2022/08/17 11:58:43;;;;;;;20.52;17.65;;;24.40;99.90;;;;;;5033304;28;20045;-66
2022/08/17 12:01:21;;;;;;;22.85;18.35;;;24.40;99.90;;;;;;5033429;28;20041;-65
2022/08/17 12:03:52;;;;;;;21.23;18.15;;;24.40;99.90;;;;;;5034074;28;20072;-65
2022/08/17 12:06:40;;;;;;;23.05;18.75;;;24.30;99.90;;;;;;5033257;28;20089;-65
2022/08/17 12:09:09;;;;;;;25.90;20.55;;;24.30;99.90;;;;;;5033477;28;20050;-65
2022/08/17 12:11:50;;;;;;;27.17;20.17;;;24.20;99.90;;;;;;5033783;28;20052;-65
2022/08/17 12:14:21;;;;;;;23.20;19.35;;;24.20;99.90;;;;;;5033225;28;20479;-65
2022/08/17 12:17:03;;;;;;;21.88;18.75;;;24.20;99.90;;;;;;5033793;28;20052;-65
2022/08/17 12:19:32;;;;;;;22.10;18.52;;;24.10;99.90;;;;;;5032986;28;20045;-65
2022/08/17 12:22:16;;;;;;;23.90;19.67;;;24.10;99.90;;;;;;5032937;28;20568;-66
2022/08/17 12:25:22;;;;;;;22.98;18.98;;;24.10;99.90;;;;;;5033092;28;20139;-66
2022/08/17 12:27:50;;;;;;;22.55;18.80;;;24.10;99.90;;;;;;5033517;28;20046;-65
2022/08/17 12:30:19;;;;;;;26.33;21.45;;;24.10;99.90;;;;;;5015669;28;20406;-66
2022/08/17 12:32:47;;;;;;;25.08;20.48;;;24.20;99.90;;;;;;5033416;28;20061;-65
2022/08/17 12:35:37;;;;;;;24.52;21.33;;;24.20;99.90;;;;;;5033460;28;20399;-65
2022/08/17 12:38:09;;;;;;;25.50;21.77;;;24.20;99.90;;;;;;5033263;28;20045;-65
2022/08/17 12:40:35;;;;;;;27.00;21.63;;;24.10;99.90;;;;;;5033175;28;20049;-65
2022/08/17 12:43:06;;;;;;;29.55;22.95;;;24.10;99.90;;;;;;5032856;28;20099;-66
2022/08/17 12:45:38;;;;;;;26.25;21.25;;;24.10;99.90;;;;;;5032903;28;20053;-65
2022/08/17 12:48:10;;;;;;;24.90;20.52;;;24.10;99.90;;;;;;5033826;28;20132;-65
2022/08/17 12:50:44;;;;;;;27.95;21.75;;;24.20;99.90;;;;;;5015733;28;20053;-66
2022/08/17 12:53:16;;;;;;;26.05;21.17;;;24.20;99.90;;;;;;5035336;28;20136;-66
2022/08/17 12:55:43;;;;;;;26.60;21.52;;;24.20;99.90;;;;;;5037398;28;20053;-66
2022/08/17 12:58:21;;;;;;;27.58;21.65;;;24.20;99.90;;;;;;5036729;28;20072;-66
2022/08/17 13:00:58;;;;;;;28.15;23.25;;;24.20;99.90;;;;;;5036641;28;20516;-65
2022/08/17 13:03:31;;;;;;;27.90;22.65;;;24.10;99.90;;;;;;5037135;28;20378;-65
2022/08/17 13:05:58;;;;;;;29.48;23.67;;;24.10;99.90;;;;;;5037608;28;20405;-65
2022/08/17 13:08:36;;;;;;;27.92;21.25;;;24.10;99.90;;;;;;5036539;28;20057;-66
2022/08/17 13:11:22;;;;;;;28.63;23.05;;;24.00;99.90;;;;;;5036363;28;20049;-66
2022/08/17 13:13:54;;;;;;;27.27;21.75;;;24.00;99.90;;;;;;5018990;28;20467;-66
2022/08/17 13:16:26;;;;;;;27.05;22.13;;;24.00;99.90;;;;;;5036872;28;20049;-66
2022/08/17 13:19:03;;;;;;;27.40;21.65;;;23.90;99.90;;;;;;5036234;28;20053;-65
2022/08/17 13:21:31;;;;;;;26.73;21.92;;;23.90;99.90;;;;;;5036344;28;20068;-68
2022/08/17 13:24:00;;;;;;;26.27;21.35;;;23.90;99.90;;;;;;5035788;28;20058;-67
2022/08/17 13:26:37;;;;;;;24.42;19.98;;;23.80;99.90;;;;;;5036192;28;20155;-66
2022/08/17 13:29:22;;;;;;;23.38;19.60;;;23.80;99.90;;;;;;5036171;28;20091;-67
2022/08/17 13:32:12;;;;;;;22.83;19.77;;;23.80;99.90;;;;;;5036656;28;20530;-67